Time;durP1;ratioP1;P1;durP2;ratioP2;P2;SDS_P1;SDS_P2;PMS_P1;PMS_P2;Temp;Humidity;BMP_temperature;BMP_pressure;BME280_temperature;BME280_humidity;BME280_pressure;Samples;Min_cycle;Max_cycle;Signal;HPM_P1;HPM_P2
2022/12/06 00:01:12;;;;;;;8.63;4.50;;;1.90;99.90;;;;;;4994102;28;20427;-88
2022/12/06 00:03:40;;;;;;;8.30;5.77;;;1.90;99.90;;;;;;4994244;28;20468;-88
2022/12/06 00:06:11;;;;;;;10.30;5.53;;;1.90;99.90;;;;;;4993211;28;20517;-90
2022/12/06 00:08:37;;;;;;;12.67;5.80;;;1.90;99.90;;;;;;4993067;28;20769;-88
2022/12/06 00:11:12;;;;;;;8.00;5.23;;;1.90;99.90;;;;;;4993081;28;20864;-88
2022/12/06 00:13:39;;;;;;;12.13;5.80;;;2.00;99.90;;;;;;4993149;28;20749;-90
2022/12/06 00:16:10;;;;;;;9.87;6.13;;;2.00;99.90;;;;;;4993897;28;20450;-88
2022/12/06 00:18:37;;;;;;;10.70;6.00;;;2.10;99.90;;;;;;4993201;28;20422;-88
2022/12/06 00:21:09;;;;;;;7.97;4.87;;;2.10;99.90;;;;;;4993023;28;20434;-88
2022/12/06 00:23:40;;;;;;;10.10;5.03;;;2.10;99.90;;;;;;4994396;28;20770;-89
2022/12/06 00:26:07;;;;;;;8.17;4.97;;;2.20;99.90;;;;;;4994698;28;20471;-91
2022/12/06 00:28:34;;;;;;;8.80;6.50;;;2.20;99.90;;;;;;4997329;28;20942;-87
2022/12/06 00:31:01;;;;;;;9.30;5.70;;;2.20;99.90;;;;;;5000139;28;20472;-90
2022/12/06 00:33:28;;;;;;;9.70;6.07;;;2.20;99.90;;;;;;5000582;28;20474;-91
2022/12/06 00:35:58;;;;;;;7.73;4.73;;;2.10;99.90;;;;;;4998392;28;20414;-90
2022/12/06 00:38:25;;;;;;;7.23;4.93;;;2.10;99.90;;;;;;4997346;28;20454;-94
2022/12/06 00:41:02;;;;;;;9.17;5.97;;;2.20;99.90;;;;;;4997554;28;20423;-88
2022/12/06 00:43:29;;;;;;;8.97;4.63;;;2.30;99.90;;;;;;4997174;28;20408;-89
2022/12/06 00:45:54;;;;;;;8.93;5.27;;;2.30;99.90;;;;;;4997321;28;20468;-90
2022/12/06 00:48:21;;;;;;;9.57;5.63;;;2.30;99.90;;;;;;4997890;28;20412;-89
2022/12/06 00:50:46;;;;;;;7.73;5.60;;;2.30;99.90;;;;;;4997274;28;20216;-93
2022/12/06 00:53:12;;;;;;;9.90;5.30;;;2.30;99.90;;;;;;4998352;28;20419;-91
2022/12/06 00:55:37;;;;;;;12.80;5.20;;;2.30;99.90;;;;;;4998177;28;20215;-90
2022/12/06 00:58:03;;;;;;;11.47;6.03;;;2.30;99.90;;;;;;4997004;28;20526;-90
2022/12/06 01:00:28;;;;;;;12.07;6.47;;;2.30;99.90;;;;;;4997103;28;20226;-90
2022/12/06 01:02:54;;;;;;;8.57;4.60;;;2.30;99.90;;;;;;4996807;28;20237;-90
2022/12/06 01:05:19;;;;;;;8.50;4.53;;;2.30;99.90;;;;;;4997152;28;20184;-91
2022/12/06 01:07:44;;;;;;;8.77;4.90;;;2.30;99.90;;;;;;4997075;28;20207;-93
2022/12/06 01:10:10;;;;;;;8.20;5.10;;;2.30;99.90;;;;;;4996846;28;20290;-91
2022/12/06 01:12:36;;;;;;;8.67;5.10;;;2.20;99.90;;;;;;4996826;28;20223;-91
2022/12/06 01:15:02;;;;;;;9.03;4.00;;;2.30;99.90;;;;;;5000186;28;20469;-88
2022/12/06 01:17:28;;;;;;;9.87;6.27;;;2.30;99.90;;;;;;4999152;28;20207;-89
2022/12/06 01:19:53;;;;;;;8.33;6.10;;;2.30;99.90;;;;;;4998832;28;20927;-89
2022/12/06 01:22:19;;;;;;;9.47;4.90;;;2.40;99.90;;;;;;4996931;28;20242;-88
2022/12/06 01:24:46;;;;;;;10.00;5.17;;;2.40;99.90;;;;;;4999255;28;20176;-88
2022/12/06 01:27:11;;;;;;;7.07;5.50;;;2.50;99.90;;;;;;4998742;28;20652;-90
2022/12/06 01:29:37;;;;;;;10.87;5.03;;;2.40;99.90;;;;;;4997313;28;20462;-91
2022/12/06 01:32:02;;;;;;;10.70;5.33;;;2.50;99.90;;;;;;4998576;28;20227;-89
2022/12/06 01:34:28;;;;;;;9.47;5.40;;;2.50;99.90;;;;;;5002251;28;20176;-91
2022/12/06 01:36:53;;;;;;;10.70;4.43;;;2.50;99.90;;;;;;4997590;28;20184;-89
2022/12/06 01:39:19;;;;;;;7.83;4.23;;;2.50;99.90;;;;;;4996954;28;20624;-88
2022/12/06 01:41:45;;;;;;;10.13;6.57;;;2.50;99.90;;;;;;5001763;28;20252;-90
2022/12/06 01:44:39;;;;;;;9.47;6.50;;;2.50;99.90;;;;;;4996165;28;20177;-89
2022/12/06 01:47:12;;;;;;;12.40;6.57;;;2.40;99.90;;;;;;4997467;28;20172;-89
2022/12/06 01:49:40;;;;;;;10.53;5.27;;;2.40;99.90;;;;;;4996030;28;20428;-89
2022/12/06 01:52:08;;;;;;;13.43;5.97;;;2.50;99.90;;;;;;4997359;28;20566;-88
2022/12/06 01:54:34;;;;;;;9.20;5.97;;;2.60;99.90;;;;;;4997022;28;20454;-90
2022/12/06 01:57:03;;;;;;;9.20;5.27;;;2.60;99.90;;;;;;4995911;28;20428;-89
2022/12/06 01:59:30;;;;;;;10.90;6.07;;;2.50;99.90;;;;;;4997565;28;20575;-89
2022/12/06 02:01:55;;;;;;;7.50;5.53;;;2.50;99.90;;;;;;4995615;28;20439;-88
2022/12/06 02:04:22;;;;;;;11.20;5.87;;;2.50;99.90;;;;;;4996907;28;20431;-88
2022/12/06 02:06:51;;;;;;;10.73;5.97;;;2.50;99.90;;;;;;4995068;28;20432;-88
2022/12/06 02:09:17;;;;;;;10.60;5.93;;;2.40;99.90;;;;;;4995499;28;20420;-95
2022/12/06 02:11:43;;;;;;;9.10;5.50;;;2.40;99.90;;;;;;4999721;28;20482;-88
2022/12/06 02:14:13;;;;;;;8.37;5.77;;;2.40;99.90;;;;;;4996012;28;20910;-88
2022/12/06 02:16:53;;;;;;;9.57;5.73;;;2.40;99.90;;;;;;4995416;28;20186;-92
2022/12/06 02:19:37;;;;;;;8.70;4.50;;;2.40;99.90;;;;;;4998273;28;20422;-95
2022/12/06 02:22:25;;;;;;;12.90;5.27;;;2.40;99.90;;;;;;4998432;28;20983;-89
2022/12/06 02:24:58;;;;;;;6.10;4.60;;;2.50;99.90;;;;;;4996010;28;20519;-88
2022/12/06 02:27:58;;;;;;;11.03;5.17;;;2.50;99.90;;;;;;4996618;28;20439;-89
2022/12/06 02:30:46;;;;;;;13.97;6.20;;;2.50;99.90;;;;;;4995631;28;20457;-92
2022/12/06 02:33:21;;;;;;;9.43;5.60;;;2.60;99.90;;;;;;4996472;28;20427;-90
2022/12/06 02:36:01;;;;;;;10.43;4.93;;;2.60;99.90;;;;;;4996212;28;20407;-91
2022/12/06 02:39:03;;;;;;;10.23;5.07;;;2.60;99.90;;;;;;4995466;28;20923;-91
2022/12/06 02:41:37;;;;;;;9.07;6.00;;;2.60;99.90;;;;;;5005480;28;20422;-91
2022/12/06 02:44:05;;;;;;;8.87;5.20;;;2.60;99.90;;;;;;4995461;28;20454;-91
2022/12/06 02:46:36;;;;;;;14.50;5.43;;;2.60;99.90;;;;;;4996410;28;20472;-90
2022/12/06 02:49:04;;;;;;;9.03;5.60;;;2.70;99.90;;;;;;4994818;28;20455;-91
2022/12/06 02:51:32;;;;;;;8.90;5.47;;;2.70;99.90;;;;;;4994086;28;20982;-91
2022/12/06 02:53:59;;;;;;;12.57;6.13;;;2.70;99.90;;;;;;4995130;28;20448;-89
2022/12/06 02:56:26;;;;;;;10.67;5.20;;;2.70;99.90;;;;;;4994932;28;20460;-91
2022/12/06 02:58:52;;;;;;;10.10;5.43;;;2.70;99.90;;;;;;4994927;28;20412;-90
2022/12/06 03:01:22;;;;;;;11.83;5.03;;;2.60;99.90;;;;;;4994694;28;20420;-91
2022/12/06 03:03:59;;;;;;;11.17;5.53;;;2.60;99.90;;;;;;4994676;28;20411;-88
2022/12/06 03:06:52;;;;;;;10.40;4.70;;;2.60;99.90;;;;;;4994843;28;20427;-89
2022/12/06 03:09:46;;;;;;;10.40;5.53;;;2.60;99.90;;;;;;4994682;28;20429;-90
2022/12/06 03:12:38;;;;;;;10.83;5.67;;;2.60;99.90;;;;;;4994471;28;20475;-90
2022/12/06 03:15:22;;;;;;;8.93;5.13;;;2.60;99.90;;;;;;4994691;28;20414;-92
2022/12/06 03:17:53;;;;;;;11.03;5.83;;;2.70;99.90;;;;;;4994579;28;20425;-91
2022/12/06 03:20:26;;;;;;;12.83;6.03;;;2.80;99.90;;;;;;4994656;28;20487;-90
2022/12/06 03:22:57;;;;;;;12.50;6.20;;;2.70;99.90;;;;;;4994632;28;20415;-90
2022/12/06 03:25:23;;;;;;;17.33;6.10;;;2.70;99.90;;;;;;4994537;28;20415;-93
2022/12/06 03:27:51;;;;;;;13.13;6.07;;;2.70;99.90;;;;;;4994304;28;20407;-90
2022/12/06 03:30:16;;;;;;;9.23;5.30;;;2.70;99.90;;;;;;4994110;28;20532;-87
2022/12/06 03:32:46;;;;;;;12.90;6.00;;;2.70;99.90;;;;;;4993460;28;20487;-89
2022/12/06 03:35:16;;;;;;;9.30;4.87;;;2.70;99.90;;;;;;4995130;28;20172;-90
2022/12/06 03:37:46;;;;;;;11.50;4.60;;;2.70;99.90;;;;;;4995040;28;20447;-88
2022/12/06 03:40:40;;;;;;;8.90;5.00;;;2.80;99.90;;;;;;4993836;28;20419;-90
2022/12/06 03:43:06;;;;;;;10.20;4.60;;;2.90;99.90;;;;;;4994196;28;20423;-89
2022/12/06 03:45:56;;;;;;;8.00;4.80;;;2.90;99.90;;;;;;4994977;28;20427;-89
2022/12/06 03:48:36;;;;;;;12.47;5.50;;;2.80;99.90;;;;;;4993635;28;20508;-90
2022/12/06 03:51:06;;;;;;;8.30;4.80;;;2.80;99.90;;;;;;4994919;28;20478;-89
2022/12/06 03:53:32;;;;;;;7.20;4.33;;;2.80;99.90;;;;;;4993521;28;20413;-89
2022/12/06 03:55:58;;;;;;;7.30;4.93;;;2.80;99.90;;;;;;4998836;28;20447;-91
2022/12/06 03:58:24;;;;;;;8.23;5.63;;;2.80;99.90;;;;;;5009038;28;20419;-90
2022/12/06 04:00:49;;;;;;;8.07;4.70;;;2.80;99.90;;;;;;4996525;28;20524;-90
2022/12/06 04:03:15;;;;;;;13.50;6.60;;;2.90;99.90;;;;;;5001769;28;20181;-92
2022/12/06 04:05:41;;;;;;;8.90;6.30;;;2.90;99.90;;;;;;5006302;28;20211;-89
2022/12/06 04:08:06;;;;;;;9.13;4.40;;;2.90;99.90;;;;;;5000569;28;20631;-89
2022/12/06 04:10:32;;;;;;;9.27;5.60;;;3.00;99.90;;;;;;5002075;28;20201;-89
2022/12/06 04:13:01;;;;;;;7.40;3.87;;;3.00;99.90;;;;;;4999886;28;20211;-92
2022/12/06 04:15:36;;;;;;;7.50;4.60;;;3.00;99.90;;;;;;4996613;28;20420;-89
2022/12/06 04:18:09;;;;;;;9.23;5.30;;;3.00;99.90;;;;;;4998705;28;20427;-91
2022/12/06 04:23:29;;;;;;;11.27;5.80;;;3.10;99.90;;;;;;4995008;28;20396;-92
2022/12/06 04:25:55;;;;;;;7.93;3.90;;;3.20;99.90;;;;;;4993386;28;20451;-90
2022/12/06 04:39:18;;;;;;;12.10;4.97;;;3.20;99.90;;;;;;4994681;28;20419;-92
2022/12/06 04:44:28;;;;;;;6.40;3.57;;;3.30;99.90;;;;;;4995568;28;20192;-95
2022/12/06 04:46:53;;;;;;;8.70;4.93;;;3.30;99.90;;;;;;4993057;28;20415;-90
2022/12/06 04:49:19;;;;;;;7.73;4.47;;;3.40;99.90;;;;;;4993266;28;20185;-90
2022/12/06 04:51:44;;;;;;;8.50;4.47;;;3.30;99.90;;;;;;4993229;28;20697;-90
2022/12/06 04:54:09;;;;;;;6.90;5.20;;;3.30;99.90;;;;;;4993527;28;20169;-91
2022/12/06 04:56:35;;;;;;;5.20;4.07;;;3.40;99.90;;;;;;4993224;28;20178;-91
2022/12/06 04:59:01;;;;;;;7.10;2.90;;;3.40;99.90;;;;;;4993284;28;20228;-91
2022/12/06 05:01:26;;;;;;;7.17;3.47;;;3.40;99.90;;;;;;4992902;28;20223;-90
2022/12/06 05:03:52;;;;;;;6.20;3.10;;;3.50;99.90;;;;;;4994156;28;20195;-89
2022/12/06 05:06:17;;;;;;;6.23;2.93;;;3.50;99.90;;;;;;4993408;28;20586;-90
2022/12/06 05:08:43;;;;;;;5.50;2.63;;;3.60;99.90;;;;;;4996011;28;20265;-91
2022/12/06 05:11:09;;;;;;;6.90;4.03;;;3.70;99.90;;;;;;4993012;28;20309;-94
2022/12/06 05:13:35;;;;;;;5.33;3.20;;;3.70;99.90;;;;;;4994252;28;20187;-92
2022/12/06 05:16:03;;;;;;;6.10;3.30;;;3.70;99.90;;;;;;4996677;28;20434;-91
2022/12/06 05:18:29;;;;;;;4.47;1.80;;;3.70;99.90;;;;;;4996769;28;20424;-91
2022/12/06 05:21:05;;;;;;;4.23;2.00;;;3.80;99.90;;;;;;4998094;28;20419;-91
2022/12/06 05:23:35;;;;;;;2.33;0.83;;;3.90;99.90;;;;;;4998939;28;20436;-89
2022/12/06 05:26:03;;;;;;;2.53;1.30;;;3.80;99.90;;;;;;5000318;28;20424;-89
2022/12/06 05:28:29;;;;;;;4.77;1.20;;;3.90;99.90;;;;;;4999282;28;20429;-90
2022/12/06 05:30:55;;;;;;;3.47;0.97;;;3.90;99.90;;;;;;4997435;28;20963;-91
2022/12/06 05:33:23;;;;;;;3.70;1.20;;;3.90;99.90;;;;;;4997468;28;20474;-94
2022/12/06 05:35:49;;;;;;;2.00;0.70;;;3.90;99.90;;;;;;5009538;28;20165;-92
2022/12/06 05:38:15;;;;;;;2.90;1.13;;;3.90;99.90;;;;;;5002655;28;20452;-91
2022/12/06 05:40:41;;;;;;;2.23;1.00;;;3.90;99.90;;;;;;5002656;28;20184;-91
2022/12/06 05:43:07;;;;;;;1.87;0.60;;;4.00;99.90;;;;;;4997723;28;20638;-92
2022/12/06 05:45:32;;;;;;;2.97;1.00;;;4.00;99.90;;;;;;4995976;28;20478;-90
2022/12/06 05:47:58;;;;;;;3.90;1.67;;;4.00;99.90;;;;;;4996499;28;20171;-91
2022/12/06 05:50:23;;;;;;;2.43;1.03;;;4.00;99.90;;;;;;4996222;28;20230;-89
2022/12/06 05:52:53;;;;;;;1.83;0.80;;;4.00;99.90;;;;;;4996205;28;20181;-90
2022/12/06 05:55:19;;;;;;;1.53;0.50;;;4.00;99.90;;;;;;4996293;28;20182;-90
2022/12/06 05:57:44;;;;;;;2.50;1.07;;;4.00;99.90;;;;;;4996024;28;20797;-90
2022/12/06 06:00:10;;;;;;;2.47;1.30;;;4.00;99.90;;;;;;4996613;28;20260;-88
2022/12/06 06:02:36;;;;;;;3.17;0.93;;;4.00;99.90;;;;;;4996853;28;20177;-89
2022/12/06 06:05:02;;;;;;;3.80;1.53;;;4.00;99.90;;;;;;4996871;28;20421;-90
2022/12/06 06:07:28;;;;;;;2.60;1.37;;;4.10;99.90;;;;;;4995775;28;20171;-89
2022/12/06 06:09:54;;;;;;;5.00;1.17;;;4.00;99.90;;;;;;4995262;28;20861;-89
2022/12/06 06:12:19;;;;;;;5.60;1.73;;;4.00;99.90;;;;;;4996358;28;20484;-89
2022/12/06 06:14:45;;;;;;;8.53;1.30;;;4.10;99.90;;;;;;4996787;28;20256;-89
2022/12/06 06:17:10;;;;;;;4.10;2.20;;;4.10;99.90;;;;;;4995483;28;20271;-90
2022/12/06 06:19:36;;;;;;;2.20;1.20;;;4.10;99.90;;;;;;4996700;28;20208;-89
2022/12/06 06:22:03;;;;;;;3.67;1.57;;;4.10;99.90;;;;;;4998890;28;20243;-89
2022/12/06 06:24:34;;;;;;;4.20;1.90;;;4.10;99.90;;;;;;4998309;28;20639;-89
2022/12/06 06:26:59;;;;;;;4.83;0.90;;;4.10;99.90;;;;;;4995872;28;20435;-94
2022/12/06 06:29:25;;;;;;;4.00;1.23;;;4.10;99.90;;;;;;4996877;28;20897;-91
2022/12/06 06:31:50;;;;;;;3.67;1.90;;;4.10;99.90;;;;;;4995515;28;20596;-94
2022/12/06 06:36:44;;;;;;;3.10;1.40;;;4.10;99.90;;;;;;5426396;22;20318;-93
2022/12/06 06:39:29;;;;;;;7.60;1.50;;;4.10;99.90;;;;;;5167076;22;20395;-90
2022/12/06 06:41:55;;;;;;;4.50;1.20;;;4.10;99.90;;;;;;5270133;22;20488;-90
2022/12/06 06:44:20;;;;;;;2.63;1.40;;;4.10;99.90;;;;;;5099744;22;20490;-88
2022/12/06 06:46:46;;;;;;;2.63;0.90;;;4.10;99.90;;;;;;5069011;28;20188;-92
2022/12/06 06:49:12;;;;;;;2.93;0.90;;;4.10;99.90;;;;;;5095705;23;20214;-92
2022/12/06 06:51:37;;;;;;;3.13;1.10;;;4.20;99.90;;;;;;5082169;28;20219;-91
2022/12/06 06:54:04;;;;;;;4.53;1.43;;;4.20;99.90;;;;;;5082316;28;20188;-93
2022/12/06 06:56:31;;;;;;;2.93;1.33;;;4.20;99.90;;;;;;5097734;28;20179;-93
2022/12/06 06:58:57;;;;;;;3.90;0.80;;;4.20;99.90;;;;;;5079029;28;20429;-93
2022/12/06 07:01:24;;;;;;;2.43;1.13;;;4.20;99.90;;;;;;5096382;28;20402;-90
2022/12/06 07:03:50;;;;;;;2.80;1.10;;;4.20;99.90;;;;;;5075064;28;20455;-93
2022/12/06 07:08:41;;;;;;;6.67;1.70;;;4.20;99.90;;;;;;5084330;22;20479;-93
2022/12/06 07:11:09;;;;;;;1.97;0.70;;;4.20;99.90;;;;;;5056117;28;20202;-95
2022/12/06 07:13:36;;;;;;;2.23;1.10;;;4.20;99.90;;;;;;5024526;28;20232;-94
2022/12/06 07:16:03;;;;;;;1.60;0.30;;;4.20;99.90;;;;;;5040675;28;20504;-95
2022/12/06 07:18:28;;;;;;;2.80;1.03;;;4.20;99.90;;;;;;5037778;28;20425;-92
2022/12/06 07:21:03;;;;;;;3.90;1.17;;;4.20;99.90;;;;;;5038211;28;20478;-92
2022/12/06 07:23:32;;;;;;;2.07;0.83;;;4.20;99.90;;;;;;5030850;28;20197;-91
2022/12/06 07:26:00;;;;;;;1.30;0.83;;;4.20;99.90;;;;;;5038903;28;20417;-92
2022/12/06 07:28:26;;;;;;;2.40;1.27;;;4.20;99.90;;;;;;5037350;28;20421;-89
2022/12/06 07:30:51;;;;;;;2.70;1.13;;;4.20;99.90;;;;;;5043247;28;20953;-90
2022/12/06 07:33:17;;;;;;;2.50;1.00;;;4.20;99.90;;;;;;5050280;28;20193;-89
2022/12/06 07:35:42;;;;;;;2.07;1.10;;;4.20;99.90;;;;;;5052321;28;20170;-89
2022/12/06 07:38:08;;;;;;;1.80;0.43;;;4.20;99.90;;;;;;5039714;28;20510;-88
2022/12/06 07:40:33;;;;;;;2.30;1.43;;;4.20;99.90;;;;;;5039774;28;20234;-89
2022/12/06 07:45:43;;;;;;;5.50;1.60;;;4.20;99.90;;;;;;5059101;28;20171;-90
2022/12/06 07:48:10;;;;;;;2.43;1.67;;;4.20;99.90;;;;;;5040656;28;20500;-90
2022/12/06 07:50:35;;;;;;;5.37;1.60;;;4.20;99.90;;;;;;5041428;28;20740;-89
2022/12/06 07:53:01;;;;;;;2.00;1.30;;;4.20;99.90;;;;;;5040528;28;20414;-87
2022/12/06 07:55:27;;;;;;;1.97;0.90;;;4.10;99.90;;;;;;5041148;28;20183;-89
2022/12/06 07:57:52;;;;;;;6.67;1.60;;;4.10;99.90;;;;;;5042078;28;20243;-90
2022/12/06 08:00:18;;;;;;;3.87;1.30;;;4.10;99.90;;;;;;5041417;28;20285;-90
2022/12/06 08:02:44;;;;;;;2.50;0.90;;;4.20;99.90;;;;;;5041584;28;20179;-92
2022/12/06 08:05:10;;;;;;;4.63;1.77;;;4.10;99.90;;;;;;5042432;28;20490;-90
2022/12/06 08:07:35;;;;;;;4.73;2.37;;;4.10;99.90;;;;;;5045066;28;20222;-90
2022/12/06 08:10:01;;;;;;;2.37;1.40;;;4.20;99.90;;;;;;5042044;28;20441;-90
2022/12/06 08:12:30;;;;;;;1.90;0.90;;;4.20;99.90;;;;;;5042405;28;20219;-90
2022/12/06 08:14:56;;;;;;;5.73;1.30;;;4.20;99.90;;;;;;5041573;28;20253;-90
2022/12/06 08:17:21;;;;;;;3.53;1.63;;;4.20;99.90;;;;;;5042387;28;20818;-89
2022/12/06 08:19:47;;;;;;;4.40;1.50;;;4.20;99.90;;;;;;5042449;28;20171;-89
2022/12/06 08:22:12;;;;;;;4.07;1.97;;;4.20;99.90;;;;;;5042735;28;20212;-90
2022/12/06 08:24:38;;;;;;;3.33;1.80;;;4.20;99.90;;;;;;5043174;28;20190;-89
2022/12/06 08:27:03;;;;;;;4.07;2.00;;;4.30;99.90;;;;;;5042502;28;20222;-89
2022/12/06 08:29:29;;;;;;;3.40;1.33;;;4.30;99.90;;;;;;5042290;28;20230;-90
2022/12/06 08:31:54;;;;;;;3.00;1.10;;;4.30;99.90;;;;;;5041808;28;20233;-89
2022/12/06 08:34:20;;;;;;;3.00;1.57;;;4.30;99.90;;;;;;5042942;28;20320;-90
2022/12/06 08:36:46;;;;;;;4.20;1.67;;;4.30;99.90;;;;;;5044440;28;20315;-89
2022/12/06 08:39:12;;;;;;;4.53;1.90;;;4.30;99.90;;;;;;5061431;28;20457;-89
2022/12/06 08:44:22;;;;;;;2.77;1.27;;;4.30;99.90;;;;;;5061280;28;20257;-91
2022/12/06 08:46:48;;;;;;;4.23;1.83;;;4.30;99.90;;;;;;5042397;28;20418;-90
2022/12/06 08:49:15;;;;;;;4.00;2.83;;;4.30;99.90;;;;;;5046350;28;20447;-90
2022/12/06 08:51:41;;;;;;;3.63;1.33;;;4.30;99.90;;;;;;5046540;28;20563;-89
2022/12/06 08:54:10;;;;;;;4.70;2.20;;;4.30;99.90;;;;;;5043799;28;20445;-91
2022/12/06 08:56:36;;;;;;;3.17;1.40;;;4.40;99.90;;;;;;5024591;28;20422;-89
2022/12/06 08:59:02;;;;;;;3.90;2.20;;;4.30;99.90;;;;;;5043865;28;21002;-89
2022/12/06 09:01:30;;;;;;;4.30;2.47;;;4.40;99.90;;;;;;5034253;28;20191;-89
2022/12/06 09:03:58;;;;;;;5.90;2.10;;;4.40;99.90;;;;;;5034969;28;20176;-92
2022/12/06 09:06:23;;;;;;;5.40;1.17;;;4.40;99.90;;;;;;5029508;28;20432;-90
2022/12/06 09:08:49;;;;;;;3.57;1.23;;;4.30;99.90;;;;;;5042699;28;20465;-87
2022/12/06 09:11:15;;;;;;;5.70;1.77;;;4.30;99.90;;;;;;5062696;28;20210;-84
2022/12/06 09:13:41;;;;;;;4.20;2.23;;;4.30;99.90;;;;;;5042612;28;20180;-93
2022/12/06 09:16:14;;;;;;;1.97;1.13;;;4.30;99.90;;;;;;5045234;28;20514;-93
2022/12/06 09:18:40;;;;;;;4.10;2.10;;;4.30;99.90;;;;;;5044249;28;20271;-90
2022/12/06 09:21:08;;;;;;;4.73;2.37;;;4.30;99.90;;;;;;5047534;28;20428;-95
2022/12/06 09:23:35;;;;;;;3.93;2.10;;;4.30;99.90;;;;;;5047354;28;20420;-91
2022/12/06 09:26:01;;;;;;;4.07;1.70;;;4.30;99.90;;;;;;5040692;28;20520;-88
2022/12/06 09:28:28;;;;;;;5.47;3.33;;;4.40;99.90;;;;;;5040388;28;20432;-91
2022/12/06 09:30:54;;;;;;;5.20;2.77;;;4.40;99.90;;;;;;5039574;28;20544;-91
2022/12/06 09:33:21;;;;;;;3.10;1.20;;;4.30;99.90;;;;;;5039975;28;20421;-93
2022/12/06 09:35:47;;;;;;;5.40;1.90;;;4.30;99.90;;;;;;5039777;28;20513;-92
2022/12/06 09:38:13;;;;;;;6.10;2.53;;;4.30;99.90;;;;;;5039713;28;20433;-90
2022/12/06 09:41:21;;;;;;;4.93;2.00;;;4.40;99.90;;;;;;5044172;28;20433;-90
2022/12/06 09:43:56;;;;;;;10.83;2.70;;;4.40;99.90;;;;;;5045029;28;20175;-91
2022/12/06 09:46:53;;;;;;;5.77;3.03;;;4.30;99.90;;;;;;5044826;28;20494;-90
2022/12/06 09:49:27;;;;;;;4.33;2.40;;;4.30;99.90;;;;;;5045184;28;20453;-90
2022/12/06 09:52:10;;;;;;;5.73;2.23;;;4.30;99.90;;;;;;5047014;28;20812;-89
2022/12/06 09:55:05;;;;;;;4.83;2.90;;;4.30;99.90;;;;;;5048603;28;20445;-90
2022/12/06 09:57:39;;;;;;;5.00;3.63;;;4.30;99.90;;;;;;5047040;28;20457;-89
2022/12/06 10:00:18;;;;;;;8.87;4.20;;;4.30;99.90;;;;;;5047594;28;20510;-89
2022/12/06 10:02:52;;;;;;;8.10;3.40;;;4.30;99.90;;;;;;5043321;28;20431;-89
2022/12/06 10:05:35;;;;;;;5.87;3.63;;;4.30;99.90;;;;;;5044068;28;20409;-91
2022/12/06 10:08:24;;;;;;;5.40;2.80;;;4.30;99.90;;;;;;5043116;28;20460;-90
2022/12/06 10:11:02;;;;;;;3.67;2.23;;;4.30;99.90;;;;;;5044076;28;20461;-90
2022/12/06 10:14:12;;;;;;;6.00;2.47;;;4.30;99.90;;;;;;5043508;28;20427;-90
2022/12/06 10:17:01;;;;;;;3.77;2.40;;;4.30;99.90;;;;;;4945847;29;20475;-89
2022/12/06 10:19:50;;;;;;;3.43;2.00;;;4.40;99.90;;;;;;5048087;28;20468;-96
2022/12/06 10:22:46;;;;;;;4.97;3.00;;;4.40;99.90;;;;;;5063936;28;20402;-90
2022/12/06 10:25:25;;;;;;;3.80;1.87;;;4.40;99.90;;;;;;5046503;28;20503;-90
2022/12/06 10:28:09;;;;;;;4.30;1.83;;;4.40;99.90;;;;;;5047953;28;20426;-90
2022/12/06 10:30:45;;;;;;;3.73;2.60;;;4.40;99.90;;;;;;5047913;28;20496;-95
2022/12/06 10:33:39;;;;;;;6.90;3.60;;;4.40;99.90;;;;;;5044041;28;20500;-94
2022/12/06 10:36:06;;;;;;;7.17;3.53;;;4.40;99.90;;;;;;5046455;28;20418;-91
2022/12/06 10:38:40;;;;;;;8.23;3.90;;;4.40;99.90;;;;;;5046495;28;20425;-91
2022/12/06 10:41:25;;;;;;;7.87;3.83;;;4.40;99.90;;;;;;5047579;28;20426;-91
2022/12/06 10:44:02;;;;;;;7.40;4.57;;;4.30;99.90;;;;;;5046148;28;20422;-89
2022/12/06 10:49:32;;;;;;;9.10;5.53;;;4.30;99.90;;;;;;5062944;28;20419;-90
2022/12/06 10:52:21;;;;;;;7.17;3.73;;;4.30;99.90;;;;;;5038155;28;20473;-90
2022/12/06 10:55:09;;;;;;;8.10;4.40;;;4.30;99.90;;;;;;5038509;28;20412;-89
2022/12/06 10:58:06;;;;;;;6.67;3.77;;;4.30;99.90;;;;;;5038566;28;20414;-90
2022/12/06 11:00:36;;;;;;;8.33;4.40;;;4.30;99.90;;;;;;5037817;28;20424;-90
2022/12/06 11:03:36;;;;;;;4.87;3.30;;;4.30;99.90;;;;;;5056142;28;20400;-90
2022/12/06 11:06:13;;;;;;;5.63;2.10;;;4.30;99.90;;;;;;5038776;28;20933;-91
2022/12/06 11:08:44;;;;;;;8.00;3.33;;;4.30;99.90;;;;;;5037868;28;20509;-90
2022/12/06 11:11:15;;;;;;;7.40;3.57;;;4.30;99.90;;;;;;5036920;28;20475;-89
2022/12/06 11:13:48;;;;;;;6.70;3.37;;;4.30;99.90;;;;;;5037721;28;20423;-90
2022/12/06 11:16:25;;;;;;;9.30;4.10;;;4.30;99.90;;;;;;5037592;28;20403;-89
2022/12/06 11:18:54;;;;;;;5.23;3.40;;;4.40;99.90;;;;;;5037661;28;20776;-89
2022/12/06 11:21:39;;;;;;;9.60;4.57;;;4.40;99.90;;;;;;5019123;28;20470;-89
2022/12/06 11:24:21;;;;;;;11.07;5.20;;;4.30;99.90;;;;;;5017612;28;20462;-90
2022/12/06 11:27:09;;;;;;;8.63;4.67;;;4.30;99.90;;;;;;5018109;28;20429;-90
2022/12/06 11:29:36;;;;;;;8.50;4.00;;;4.30;99.90;;;;;;5017345;28;20409;-89
2022/12/06 11:32:06;;;;;;;8.03;3.90;;;4.30;99.90;;;;;;5017630;28;20475;-87
2022/12/06 11:34:42;;;;;;;9.17;4.60;;;4.30;99.90;;;;;;5017622;28;20888;-90
2022/12/06 11:37:17;;;;;;;8.20;5.50;;;4.30;99.90;;;;;;5017762;28;20905;-89
2022/12/06 11:39:44;;;;;;;9.13;4.90;;;4.30;99.90;;;;;;5017636;28;21035;-91
2022/12/06 11:42:17;;;;;;;9.67;5.87;;;4.20;99.90;;;;;;5018097;28;20520;-89
2022/12/06 11:44:47;;;;;;;12.87;5.30;;;4.30;99.90;;;;;;5017335;28;20773;-90
2022/12/06 11:47:16;;;;;;;14.60;7.23;;;4.20;99.90;;;;;;5018955;28;20866;-89
2022/12/06 11:49:43;;;;;;;14.00;9.57;;;4.30;99.90;;;;;;5036666;28;20404;-90
2022/12/06 11:52:18;;;;;;;11.80;7.20;;;4.30;99.90;;;;;;5028545;28;20473;-90
2022/12/06 11:54:53;;;;;;;11.60;5.53;;;4.30;99.90;;;;;;5029710;28;20405;-92
2022/12/06 11:57:39;;;;;;;15.87;7.10;;;4.30;99.90;;;;;;5053528;28;20473;-94
2022/12/06 12:00:20;;;;;;;14.50;7.03;;;4.20;99.90;;;;;;5027702;28;20410;-94
2022/12/06 12:02:51;;;;;;;14.47;6.37;;;4.20;99.90;;;;;;5029363;28;20908;-94
2022/12/06 12:05:22;;;;;;;10.17;5.70;;;4.20;99.90;;;;;;5024370;28;20774;-88
2022/12/06 12:07:54;;;;;;;18.30;7.13;;;4.30;99.90;;;;;;5016322;28;20959;-89
2022/12/06 12:11:01;;;;;;;11.87;5.57;;;4.30;99.90;;;;;;5017294;28;20421;-95
2022/12/06 12:13:43;;;;;;;6.67;4.43;;;4.30;99.90;;;;;;4919129;29;20430;-88
2022/12/06 12:16:29;;;;;;;10.67;6.70;;;4.40;99.90;;;;;;5007893;28;20450;-88
2022/12/06 12:18:59;;;;;;;8.97;5.43;;;4.30;99.90;;;;;;5016205;28;20425;-93
2022/12/06 12:21:43;;;;;;;9.57;5.60;;;4.30;99.90;;;;;;5016137;28;20409;-89
2022/12/06 12:24:39;;;;;;;8.67;5.13;;;4.30;99.90;;;;;;5033466;28;20486;-88
2022/12/06 12:27:34;;;;;;;10.80;4.93;;;4.30;99.90;;;;;;5015957;28;20420;-89
2022/12/06 12:30:25;;;;;;;6.60;4.63;;;4.30;99.90;;;;;;5015614;28;20427;-88
2022/12/06 12:33:14;;;;;;;7.93;4.07;;;4.40;99.90;;;;;;5016020;28;20446;-88
2022/12/06 12:35:47;;;;;;;9.63;4.53;;;4.40;99.90;;;;;;5033424;28;20463;-90
2022/12/06 12:38:21;;;;;;;11.00;5.03;;;4.40;99.90;;;;;;5016085;28;20422;-89
2022/12/06 12:41:00;;;;;;;6.90;4.47;;;4.40;99.90;;;;;;5015839;28;20430;-92
2022/12/06 12:43:30;;;;;;;10.97;6.03;;;4.40;99.90;;;;;;5015823;28;20486;-88
2022/12/06 12:46:09;;;;;;;7.30;4.20;;;4.40;99.90;;;;;;5015309;28;20452;-90
2022/12/06 12:48:36;;;;;;;8.90;4.53;;;4.40;99.90;;;;;;5015886;28;20437;-91
2022/12/06 12:51:22;;;;;;;10.90;6.37;;;4.40;99.90;;;;;;5016724;28;20475;-93
2022/12/06 12:53:54;;;;;;;9.57;5.33;;;4.30;99.90;;;;;;5016436;28;20424;-88
2022/12/06 12:56:21;;;;;;;8.47;5.30;;;4.20;99.90;;;;;;5016681;28;20423;-89
2022/12/06 12:58:55;;;;;;;16.03;7.23;;;4.20;99.90;;;;;;5017183;28;20922;-88
2022/12/06 13:01:31;;;;;;;11.40;5.40;;;4.20;99.90;;;;;;5019706;28;20426;-88
2022/12/06 13:04:10;;;;;;;13.50;5.97;;;4.10;99.90;;;;;;5052827;28;20405;-91
2022/12/06 13:06:49;;;;;;;11.67;6.33;;;4.10;99.90;;;;;;5015243;28;20429;-87
2022/12/06 13:09:40;;;;;;;13.77;6.20;;;4.20;99.90;;;;;;5026038;28;20430;-89
2022/12/06 13:12:14;;;;;;;7.20;3.40;;;4.20;99.90;;;;;;4998071;28;20499;-94
2022/12/06 13:14:48;;;;;;;10.20;5.13;;;4.20;99.90;;;;;;5046449;28;20421;-88
2022/12/06 13:17:14;;;;;;;9.90;5.37;;;4.10;99.90;;;;;;5028082;28;20786;-91
2022/12/06 13:19:44;;;;;;;9.23;4.87;;;4.10;99.90;;;;;;5020607;28;20433;-92
2022/12/06 13:22:21;;;;;;;9.13;5.40;;;4.00;99.90;;;;;;5015060;28;20228;-88
2022/12/06 13:25:15;;;;;;;9.03;4.43;;;4.10;99.90;;;;;;5014794;28;20743;-88
2022/12/06 13:27:47;;;;;;;13.03;4.97;;;4.00;99.90;;;;;;5028227;28;20989;-88
2022/12/06 13:30:18;;;;;;;10.53;4.67;;;4.00;99.90;;;;;;5015033;28;20800;-88
2022/12/06 13:32:52;;;;;;;6.93;4.37;;;4.00;99.90;;;;;;5014978;28;20469;-91
2022/12/06 13:35:29;;;;;;;7.70;5.03;;;4.10;99.90;;;;;;5017072;28;20430;-88
2022/12/06 13:38:01;;;;;;;10.10;5.00;;;4.10;99.90;;;;;;5036201;28;20451;-93
2022/12/06 13:40:32;;;;;;;8.33;5.07;;;4.00;99.90;;;;;;5036396;28;20448;-88
2022/12/06 13:42:59;;;;;;;7.83;3.97;;;4.00;99.90;;;;;;5036274;28;20421;-88
2022/12/06 13:45:39;;;;;;;9.10;4.20;;;4.00;99.90;;;;;;5018185;28;20977;-88
2022/12/06 13:48:22;;;;;;;7.60;3.67;;;4.00;99.90;;;;;;5018462;28;20423;-90